createdAt,value
2019-03-06T01:29:23.529Z,100869.53
2019-03-06T01:31:52.378Z,100875.48
2019-03-06T01:34:33.121Z,100872.47
2019-03-06T01:37:10.150Z,100870.28
2019-03-06T01:39:56.494Z,100871.84
2019-03-06T01:42:33.860Z,100870.48
2019-03-06T01:45:05.559Z,100864.04
2019-03-06T01:47:34.532Z,100867.33
2019-03-06T01:50:03.361Z,100868.73
2019-03-06T01:52:32.175Z,100864.77
2019-03-06T01:55:01.316Z,100867.48
2019-03-06T01:57:30.144Z,100867.73
2019-03-06T01:59:59.107Z,100872.07
2019-03-06T02:02:28.067Z,100869.01
2019-03-06T02:04:57.020Z,100860.17
2019-03-06T02:07:26.116Z,100865.22
2019-03-06T02:09:55.020Z,100861.30
2019-03-06T02:12:23.848Z,100859.27
2019-03-06T02:14:52.685Z,100852.53
2019-03-06T02:17:21.537Z,100856.54
2019-03-06T02:19:50.492Z,100852.62
2019-03-06T02:22:19.392Z,100847.29
2019-03-06T02:24:48.206Z,100855.46
2019-03-06T02:27:17.107Z,100854.73
2019-03-06T02:29:46.171Z,100856.18
2019-03-06T02:32:15.255Z,100847.23
2019-03-06T02:34:44.046Z,100850.02
2019-03-06T02:37:12.835Z,100845.70
2019-03-06T02:39:41.742Z,100843.89
2019-03-06T02:42:10.538Z,100834.88
2019-03-06T02:44:40.229Z,100834.75
2019-03-06T02:47:09.251Z,100829.39
2019-03-06T02:49:38.194Z,100828.88
2019-03-06T02:52:07.654Z,100823.20
2019-03-06T02:54:36.535Z,100828.25
2019-03-06T02:57:05.387Z,100826.95
2019-03-06T03:00:02.421Z,100828.35
2019-03-06T03:02:41.877Z,100824.22
2019-03-06T03:05:19.110Z,100822.87
2019-03-06T03:07:48.292Z,100815.32
2019-03-06T03:10:17.200Z,100830.81
2019-03-06T03:12:45.994Z,100818.45
2019-03-06T03:15:16.580Z,100817.48
2019-03-06T03:17:45.540Z,100816.47
2019-03-06T03:20:14.786Z,100815.55
2019-03-06T03:22:43.634Z,100820.93
2019-03-06T03:25:12.536Z,100822.28
2019-03-06T03:27:41.376Z,100828.25
2019-03-06T03:30:12.433Z,100828.12
2019-03-06T03:32:41.240Z,100828.19
2019-03-06T03:35:10.164Z,100828.69
2019-03-06T03:37:39.245Z,100817.34
2019-03-06T03:40:09.462Z,100806.11
2019-03-06T03:42:38.573Z,100810.13
2019-03-06T03:45:08.371Z,100802.70
2019-03-06T03:47:37.288Z,100809.34
2019-03-06T03:50:06.884Z,100810.82
2019-03-06T03:52:35.731Z,100811.78
2019-03-06T03:55:04.998Z,100801.28
2019-03-06T03:57:33.860Z,100807.79
2019-03-06T04:00:02.715Z,100806.72
2019-03-06T04:02:32.198Z,100804.50
2019-03-06T04:05:01.069Z,100798.66
2019-03-06T04:07:29.990Z,100799.51
2019-03-06T04:09:58.864Z,100801.74
2019-03-06T04:12:27.825Z,100794.31
2019-03-06T04:14:56.651Z,100795.67
2019-03-06T04:17:25.493Z,100793.68
2019-03-06T04:19:54.584Z,100787.55
2019-03-06T04:22:23.369Z,100792.72
2019-03-06T04:24:52.258Z,100790.64
2019-03-06T04:27:21.074Z,100795.46
2019-03-06T04:29:50.170Z,100787.55
2019-03-06T04:32:19.169Z,100784.04
2019-03-06T04:34:47.970Z,100787.17
2019-03-06T04:37:16.835Z,100790.56
2019-03-06T04:39:45.626Z,100783.85
2019-03-06T04:42:15.046Z,100781.48
2019-03-06T04:44:43.961Z,100786.65
2019-03-06T04:47:12.872Z,100788.46
2019-03-06T04:49:41.686Z,100791.36
2019-03-06T04:52:10.641Z,100785.42
2019-03-06T04:54:39.711Z,100779.86
2019-03-06T04:57:08.484Z,100778.89
2019-03-06T04:59:37.492Z,100774.11
2019-03-06T05:02:06.389Z,100770.59
2019-03-06T05:04:35.185Z,100778.89
2019-03-06T05:07:04.106Z,100776.89
2019-03-06T05:09:32.945Z,100779.03
2019-03-06T05:12:01.720Z,100777.00
2019-03-06T05:14:30.514Z,100773.81
2019-03-06T05:17:17.122Z,100773.75
2019-03-06T05:19:45.927Z,100775.11
2019-03-06T05:22:14.692Z,100776.36
2019-03-06T05:24:43.563Z,100771.42
2019-03-06T05:27:12.908Z,100770.63
2019-03-06T05:29:41.707Z,100775.80
2019-03-06T05:32:36.258Z,100772.28
2019-03-06T05:35:23.981Z,100766.58
2019-03-06T05:38:21.545Z,100766.35
2019-03-06T05:40:50.442Z,100755.31
2019-03-06T05:43:19.335Z,100747.88
2019-03-06T05:45:48.731Z,100746.18
2019-03-06T05:48:17.527Z,100742.15
2019-03-06T05:50:46.386Z,100742.58
2019-03-06T05:53:15.327Z,100743.77
2019-03-06T05:55:44.299Z,100741.95
2019-03-06T05:58:13.151Z,100740.19
2019-03-06T06:00:42.130Z,100738.09
2019-03-06T06:03:10.908Z,100732.81
2019-03-06T06:05:39.820Z,100732.72
2019-03-06T06:08:08.616Z,100729.34
2019-03-06T06:10:37.424Z,100723.35
2019-03-06T06:13:06.260Z,100723.48
2019-03-06T06:15:35.109Z,100712.30
2019-03-06T06:18:04.282Z,100715.61
2019-03-06T06:20:33.384Z,100706.48
2019-03-06T06:23:13.308Z,100703.02
2019-03-06T06:25:42.236Z,100701.59
2019-03-06T06:28:11.199Z,100699.70
2019-03-06T06:30:40.167Z,100700.98
2019-03-06T06:33:09.648Z,100692.80
2019-03-06T06:35:38.514Z,100692.22
2019-03-06T06:38:07.310Z,100691.70
2019-03-06T06:40:36.193Z,100691.61
2019-03-06T06:43:05.378Z,100692.64
2019-03-06T06:45:34.746Z,100699.67
2019-03-06T06:48:11.433Z,100693.47
2019-03-06T06:51:03.298Z,100685.92
2019-03-06T06:53:47.783Z,100683.91
2019-03-06T06:56:43.284Z,100675.58
2019-03-06T06:59:17.084Z,100671.81
2019-03-06T07:02:48.298Z,100667.47
2019-03-06T07:05:45.330Z,100667.14
2019-03-06T07:08:27.664Z,100664.56
2019-03-06T07:11:28.336Z,100668.02
2019-03-06T07:14:19.796Z,100666.88
2019-03-06T07:17:23.028Z,100673.38
2019-03-06T07:20:01.230Z,100666.77
2019-03-06T07:22:35.731Z,100664.94
2019-03-06T07:25:30.498Z,100659.34
2019-03-06T07:28:07.274Z,100656.20
2019-03-06T07:31:04.014Z,100661.97
2019-03-06T07:33:42.228Z,100660.27
2019-03-06T07:36:39.297Z,100663.67
2019-03-06T07:39:23.441Z,100660.03
2019-03-06T07:42:23.494Z,100661.20
2019-03-06T07:45:57.613Z,100654.17
2019-03-06T07:49:11.059Z,100648.94
2019-03-06T07:51:48.897Z,100646.95
2019-03-06T07:54:35.881Z,100636.49
2019-03-06T07:57:39.045Z,100637.27
2019-03-06T08:00:22.073Z,100625.11
2019-03-06T08:03:03.593Z,100618.17
2019-03-06T08:05:32.463Z,100625.92
2019-03-06T08:08:01.432Z,100614.92
2019-03-06T08:10:33.631Z,100616.62
2019-03-06T08:13:08.074Z,100613.69
2019-03-06T08:15:48.586Z,100611.91
2019-03-06T08:18:23.113Z,100612.30
2019-03-06T08:21:17.171Z,100600.98
2019-03-06T08:23:53.287Z,100606.54
2019-03-06T08:26:23.345Z,100604.84
2019-03-06T08:28:52.161Z,100607.85
2019-03-06T08:31:33.427Z,100608.23
2019-03-06T08:34:02.481Z,100608.98
2019-03-06T08:36:31.421Z,100594.13
2019-03-06T08:39:00.469Z,100599.95
2019-03-06T08:41:29.661Z,100593.45
2019-03-06T08:43:58.593Z,100602.35
2019-03-06T08:46:41.669Z,100595.94
2019-03-06T08:49:32.912Z,100587.62
2019-03-06T08:52:13.515Z,100580.82
2019-03-06T08:55:01.507Z,100575.44
2019-03-06T08:57:40.743Z,100577.98
2019-03-06T09:00:34.537Z,100574.77
2019-03-06T09:03:25.938Z,100570.30
2019-03-06T09:06:13.907Z,100565.48
2019-03-06T09:09:08.153Z,100560.39
2019-03-06T09:12:07.927Z,100565.09
2019-03-06T09:14:53.686Z,100565.72
2019-03-06T09:17:53.813Z,100566.75
2019-03-06T09:20:36.133Z,100560.30
2019-03-06T09:26:15.134Z,100548.48
2019-03-06T09:29:04.549Z,100550.98
2019-03-06T09:31:44.468Z,100541.88
2019-03-06T09:34:25.213Z,100529.02
2019-03-06T09:37:09.412Z,100518.06
2019-03-06T09:39:52.024Z,100510.00
2019-03-06T09:42:35.153Z,100509.38
2019-03-06T09:45:10.215Z,100499.43
2019-03-06T09:47:50.487Z,100500.83
2019-03-06T09:50:38.287Z,100498.33
2019-03-06T09:53:32.041Z,100495.33
2019-03-06T09:56:28.963Z,100475.56
2019-03-06T09:59:12.083Z,100469.80
2019-03-06T10:01:46.374Z,100461.99
2019-03-06T10:04:40.409Z,100449.46
2019-03-06T10:07:46.675Z,100455.62
2019-03-06T10:10:33.577Z,100435.62
2019-03-06T10:13:21.390Z,100439.04
2019-03-06T10:16:11.285Z,100446.59
2019-03-06T10:19:00.370Z,100454.36
2019-03-06T10:22:02.400Z,100453.59
2019-03-06T10:24:32.618Z,100441.73
2019-03-06T10:27:01.843Z,100431.52
2019-03-06T10:29:31.166Z,100428.09
2019-03-06T10:32:00.266Z,100430.98
2019-03-06T10:34:29.748Z,100428.17
2019-03-06T10:36:59.460Z,100433.94
2019-03-06T10:39:28.464Z,100422.95
2019-03-06T10:41:57.385Z,100421.20
2019-03-06T10:44:29.759Z,100430.78
2019-03-06T10:46:57.360Z,100413.27
2019-03-06T10:49:27.645Z,100416.77
2019-03-06T10:51:56.829Z,100408.69
2019-03-06T10:54:25.947Z,100403.83
2019-03-06T10:56:57.143Z,100407.98
2019-03-06T10:59:25.915Z,100397.67
2019-03-06T11:01:56.940Z,100387.64
2019-03-06T11:04:32.830Z,100397.89
2019-03-06T11:07:02.338Z,100384.36
2019-03-06T11:09:32.604Z,100384.86
2019-03-06T11:12:01.503Z,100371.41
2019-03-06T11:14:31.731Z,100362.94
2019-03-06T11:17:00.684Z,100365.41
2019-03-06T11:19:30.385Z,100354.88
2019-03-06T11:21:59.439Z,100340.92
2019-03-06T11:24:28.398Z,100343.56
2019-03-06T11:26:57.844Z,100339.38
2019-03-06T11:29:26.846Z,100327.25
2019-03-06T11:31:55.787Z,100328.92
2019-03-06T11:34:24.650Z,100317.33
2019-03-06T11:36:53.900Z,100325.14
2019-03-06T11:39:23.450Z,100310.00
2019-03-06T11:41:52.397Z,100306.05
2019-03-06T11:44:21.317Z,100297.83
2019-03-06T11:46:50.811Z,100285.92
2019-03-06T11:49:21.174Z,100284.95
2019-03-06T11:51:50.571Z,100268.96
2019-03-06T11:54:19.808Z,100276.84
2019-03-06T11:56:49.241Z,100267.11
2019-03-06T11:59:18.248Z,100259.80
2019-03-06T12:01:48.474Z,100260.70
2019-03-06T12:04:17.663Z,100253.34
2019-03-06T12:06:46.602Z,100246.31
2019-03-06T12:09:34.214Z,100243.48
2019-03-06T12:12:04.127Z,100236.20
2019-03-06T12:14:33.015Z,100230.40
2019-03-06T12:17:01.975Z,100225.55
2019-03-06T12:19:31.024Z,100214.94
2019-03-06T12:22:00.216Z,100212.84
2019-03-06T12:24:29.673Z,100220.59
2019-03-06T12:26:58.605Z,100214.47
2019-03-06T12:29:27.914Z,100207.28
2019-03-06T12:31:56.729Z,100197.69
2019-03-06T12:34:25.748Z,100196.62
2019-03-06T12:36:54.906Z,100200.02
2019-03-06T12:39:23.966Z,100197.45
2019-03-06T12:41:52.946Z,100189.35
2019-03-06T12:44:22.276Z,100181.32
2019-03-06T12:46:54.195Z,100170.41
2019-03-06T12:49:28.010Z,100165.38
2019-03-06T12:51:56.910Z,100161.67
2019-03-06T12:54:27.497Z,100144.03
2019-03-06T12:56:56.602Z,100140.47
2019-03-06T12:59:26.066Z,100130.48
2019-03-06T13:01:54.936Z,100109.73
2019-03-06T13:04:23.804Z,100091.91
2019-03-06T13:06:53.008Z,100065.04
2019-03-06T13:09:21.824Z,100068.44
2019-03-06T13:11:50.925Z,100073.00
2019-03-06T13:14:19.891Z,100075.44
2019-03-06T13:16:49.285Z,100066.69
2019-03-06T13:19:18.395Z,100069.92
2019-03-06T13:21:47.438Z,100061.77
2019-03-06T13:24:17.049Z,100039.57
2019-03-06T13:26:45.879Z,100033.13
2019-03-06T13:29:14.785Z,100012.84
2019-03-06T13:31:43.652Z,100010.95
2019-03-06T13:34:31.474Z,100016.00
2019-03-06T13:37:00.344Z,100009.40
2019-03-06T13:39:30.305Z,100017.23
2019-03-06T13:41:59.487Z,100019.87
2019-03-06T13:44:28.253Z,100014.22
2019-03-06T13:46:57.142Z,100005.10
2019-03-06T13:49:25.980Z,99991.68
2019-03-06T13:51:54.944Z,99999.60
2019-03-06T13:54:23.723Z,99990.23
2019-03-06T13:56:52.753Z,99981.59
2019-03-06T13:59:21.609Z,99977.17
2019-03-06T14:01:50.473Z,99970.22
2019-03-06T14:04:19.262Z,99966.13
2019-03-06T14:06:48.152Z,99960.01
2019-03-06T14:09:17.339Z,99952.56
2019-03-06T14:11:46.639Z,99946.80
2019-03-06T14:14:15.580Z,99954.73
2019-03-06T14:16:44.463Z,99949.09
2019-03-06T14:19:13.335Z,99948.61
2019-03-06T14:21:42.173Z,99936.73
2019-03-06T14:24:11.400Z,99942.73
2019-03-06T14:26:40.612Z,99931.81
2019-03-06T14:29:09.693Z,99922.80
2019-03-06T14:31:38.885Z,99912.49
2019-03-06T14:34:07.867Z,99906.83
2019-03-06T14:36:36.796Z,99900.48
2019-03-06T14:39:21.027Z,99903.70
2019-03-06T14:41:50.065Z,99893.98
2019-03-06T14:44:19.150Z,99888.12
2019-03-06T14:46:48.476Z,99881.73
2019-03-06T14:49:17.447Z,99883.41
2019-03-06T14:51:46.248Z,99878.26
2019-03-06T14:54:15.225Z,99873.23
2019-03-06T14:56:45.075Z,99866.36
2019-03-06T14:59:14.967Z,99860.47
2019-03-06T15:01:44.991Z,99851.08
2019-03-06T15:04:14.316Z,99844.12
2019-03-06T15:06:44.171Z,99832.58
2019-03-06T15:09:28.668Z,99833.91
2019-03-06T15:11:57.577Z,99817.83
2019-03-06T15:14:35.550Z,99806.98
2019-03-06T15:16:58.379Z,99816.72
2019-03-06T15:19:27.353Z,99798.48
2019-03-06T15:21:56.649Z,99792.58
2019-03-06T15:24:25.727Z,99794.39
2019-03-06T15:26:54.717Z,99783.94
2019-03-06T15:29:23.777Z,99788.48
2019-03-06T15:31:53.046Z,99785.13
2019-03-06T15:34:22.142Z,99776.86
2019-03-06T15:36:51.197Z,99770.59
2019-03-06T15:39:44.469Z,99764.61
2019-03-06T15:42:13.529Z,99771.92
2019-03-06T15:44:43.235Z,99765.67
2019-03-06T15:47:12.314Z,99753.69
2019-03-06T15:49:43.284Z,99751.28
2019-03-06T15:52:13.009Z,99758.60
2019-03-06T15:54:42.241Z,99758.51
2019-03-06T15:57:12.487Z,99758.60
2019-03-06T15:59:41.422Z,99750.94
2019-03-06T16:02:11.436Z,99748.42
2019-03-06T16:04:40.923Z,99742.44
2019-03-06T16:07:11.881Z,99745.08
2019-03-06T16:09:41.660Z,99749.05
2019-03-06T16:12:12.332Z,99741.52
2019-03-06T16:14:42.780Z,99733.72
2019-03-06T16:17:13.079Z,99730.95
2019-03-06T16:19:43.074Z,99725.58
2019-03-06T16:22:19.252Z,99726.37
2019-03-06T16:24:54.015Z,99739.27
2019-03-06T16:27:22.996Z,99741.29
2019-03-06T16:29:51.879Z,99732.28
2019-03-06T16:32:20.785Z,99730.73
2019-03-06T16:34:49.811Z,99735.05
2019-03-06T16:37:18.746Z,99733.14
2019-03-06T16:39:47.867Z,99737.00
2019-03-06T16:42:16.796Z,99746.37
2019-03-06T16:44:46.692Z,99750.20
2019-03-06T16:47:15.582Z,99746.48
2019-03-06T16:49:44.852Z,99744.56
2019-03-06T16:52:14.173Z,99742.05
2019-03-06T16:54:43.604Z,99743.36
2019-03-06T16:57:12.651Z,99739.40
2019-03-06T16:59:41.507Z,99731.59
2019-03-06T17:02:10.897Z,99725.88
2019-03-06T17:04:42.997Z,99725.97
2019-03-06T17:07:12.080Z,99703.56
2019-03-06T17:09:41.011Z,99719.50
2019-03-06T17:12:09.940Z,99719.73
2019-03-06T17:14:38.866Z,99725.27
2019-03-06T17:17:08.266Z,99734.50
2019-03-06T17:19:37.136Z,99733.17
2019-03-06T17:22:06.643Z,99733.89
2019-03-06T17:24:35.551Z,99730.05
2019-03-06T17:27:04.606Z,99728.25
2019-03-06T17:29:33.502Z,99743.84
2019-03-06T17:32:02.408Z,99737.02
2019-03-06T17:34:31.441Z,99730.62
2019-03-06T17:37:01.372Z,99739.61
2019-03-06T17:39:30.127Z,99734.59
2019-03-06T17:41:58.968Z,99738.20
2019-03-06T17:44:27.817Z,99734.33
2019-03-06T17:46:56.975Z,99738.04
2019-03-06T17:49:26.403Z,99739.12
2019-03-06T17:51:55.190Z,99741.37
2019-03-06T17:54:24.065Z,99737.92
2019-03-06T17:56:53.209Z,99725.95
2019-03-06T17:59:22.359Z,99729.20
2019-03-06T18:01:51.854Z,99724.02
2019-03-06T18:04:22.314Z,99725.55
2019-03-06T18:06:51.232Z,99725.20
2019-03-06T18:09:20.174Z,99718.62
2019-03-06T18:11:49.396Z,99715.86
2019-03-06T18:14:19.795Z,99704.72
2019-03-06T18:16:48.980Z,99704.11
2019-03-06T18:19:17.808Z,99704.96
2019-03-06T18:21:46.791Z,99708.91
2019-03-06T18:24:15.786Z,99699.66
2019-03-06T18:26:44.864Z,99692.36
2019-03-06T18:29:13.894Z,99690.81
2019-03-06T18:31:42.697Z,99692.60
2019-03-06T18:34:12.457Z,99685.40
2019-03-06T18:36:41.474Z,99685.86
2019-03-06T18:39:20.920Z,99674.60
2019-03-06T18:41:50.001Z,99659.99
2019-03-06T18:44:19.103Z,99653.14
2019-03-06T18:46:49.105Z,99647.53
2019-03-06T18:49:18.159Z,99643.59
2019-03-06T18:51:47.112Z,99641.44
2019-03-06T18:54:15.938Z,99641.41
2019-03-06T18:56:44.715Z,99647.66
2019-03-06T18:59:13.785Z,99642.38
2019-03-06T19:01:43.053Z,99630.88
2019-03-06T19:04:11.954Z,99632.70
2019-03-06T19:06:41.448Z,99626.56
2019-03-06T19:09:10.413Z,99620.22
2019-03-06T19:11:39.425Z,99613.27
2019-03-06T19:14:08.325Z,99617.83
2019-03-06T19:16:37.273Z,99618.31
2019-03-06T19:19:21.186Z,99613.87
2019-03-06T19:21:50.114Z,99617.72
2019-03-06T19:24:18.983Z,99610.38
2019-03-06T19:26:50.028Z,99606.80
2019-03-06T19:29:19.172Z,99608.70
2019-03-06T19:37:13.009Z,99607.16
2019-03-06T19:39:42.044Z,99609.33
2019-03-06T19:42:11.487Z,99606.55
2019-03-06T19:44:41.717Z,99605.95
2019-03-06T19:47:10.810Z,99603.68
2019-03-06T19:49:40.116Z,99615.44
2019-03-06T19:52:09.091Z,99596.24
2019-03-06T19:54:37.905Z,99595.66
2019-03-06T19:57:07.005Z,99589.20
2019-03-06T19:59:36.554Z,99592.89
2019-03-06T20:02:05.597Z,99587.02
2019-03-06T20:04:34.809Z,99583.68
2019-03-06T20:07:03.774Z,99587.98
2019-03-06T20:09:32.721Z,99577.44
2019-03-06T20:12:01.694Z,99571.81
2019-03-06T20:14:30.649Z,99576.12
2019-03-06T20:16:59.612Z,99569.17
2019-03-06T20:19:28.456Z,99573.73
2019-03-06T20:21:57.612Z,99563.30
2019-03-06T20:24:26.567Z,99560.19
2019-03-06T20:26:55.767Z,99557.07
2019-03-06T20:29:24.656Z,99545.21
2019-03-06T20:31:54.380Z,99547.36
2019-03-06T20:34:24.085Z,99525.23
2019-03-06T20:36:52.872Z,99529.64
2019-03-06T20:39:21.766Z,99533.95
2019-03-06T20:41:50.585Z,99526.88
2019-03-06T20:44:19.457Z,99523.76
2019-03-06T20:46:48.384Z,99522.31
2019-03-06T20:49:17.197Z,99520.30
2019-03-06T20:51:46.362Z,99521.61
2019-03-06T20:54:15.247Z,99508.56
2019-03-06T20:56:44.274Z,99508.30
2019-03-06T20:59:13.446Z,99503.64
2019-03-06T21:01:42.374Z,99497.02
2019-03-06T21:04:11.237Z,99494.41
2019-03-06T21:06:40.434Z,99493.91
2019-03-06T21:09:09.283Z,99493.20
2019-03-06T21:11:38.360Z,99489.95
2019-03-06T21:14:07.292Z,99486.83
2019-03-06T21:16:36.132Z,99483.84
2019-03-06T21:19:05.089Z,99478.69
2019-03-06T21:21:33.972Z,99467.76
2019-03-06T21:24:03.016Z,99470.88
2019-03-06T21:26:31.834Z,99468.37
2019-03-06T21:29:00.830Z,99463.93
2019-03-06T21:31:29.757Z,99462.88
2019-03-06T21:33:58.581Z,99462.48
2019-03-06T21:36:27.504Z,99463.31
2019-03-06T21:38:56.308Z,99463.18
2019-03-06T21:41:25.167Z,99474.58
2019-03-06T21:43:54.004Z,99461.03
2019-03-06T21:46:22.839Z,99459.13
2019-03-06T21:48:51.692Z,99460.45
2019-03-06T21:51:20.739Z,99460.80
2019-03-06T21:53:49.542Z,99466.17
2019-03-06T21:56:18.331Z,99448.17
2019-03-06T21:58:47.175Z,99454.02
2019-03-06T22:01:16.154Z,99457.41
2019-03-06T22:03:44.932Z,99449.95
2019-03-06T22:06:14.059Z,99446.25
2019-03-06T22:08:43.909Z,99445.53
2019-03-06T22:11:12.745Z,99445.05
2019-03-06T22:13:41.614Z,99440.12
2019-03-06T22:16:10.882Z,99442.90
2019-03-06T22:18:39.666Z,99436.97
2019-03-06T22:21:08.527Z,99438.67
2019-03-06T22:23:37.363Z,99433.27
2019-03-06T22:26:06.310Z,99428.70
2019-03-06T22:28:35.193Z,99428.61
2019-03-06T22:31:04.305Z,99435.55
2019-03-06T22:33:33.094Z,99425.83
2019-03-06T22:36:02.288Z,99425.20
2019-03-06T22:38:31.308Z,99421.82
2019-03-06T22:41:00.138Z,99418.00
2019-03-06T22:43:28.911Z,99422.09
2019-03-06T22:45:58.081Z,99415.76
2019-03-06T22:48:27.115Z,99410.44
2019-03-06T22:50:56.157Z,99409.39
2019-03-06T22:53:24.962Z,99406.13
2019-03-06T22:55:53.912Z,99400.96
2019-03-06T22:58:22.839Z,99402.77
2019-03-06T23:00:58.715Z,99398.32
2019-03-06T23:03:29.558Z,99399.48
2019-03-06T23:05:58.412Z,99388.47
2019-03-06T23:08:27.270Z,99382.86
2019-03-06T23:10:56.119Z,99388.00
2019-03-06T23:13:25.266Z,99378.89
2019-03-06T23:15:54.155Z,99382.73
2019-03-06T23:18:23.030Z,99370.98
2019-03-06T23:20:51.801Z,99376.48
2019-03-06T23:23:20.621Z,99375.43
2019-03-06T23:25:49.432Z,99381.17
2019-03-06T23:28:18.234Z,99369.86
2019-03-06T23:30:47.132Z,99371.05
2019-03-06T23:33:15.995Z,99362.27
2019-03-06T23:35:45.243Z,99368.25
2019-03-06T23:38:14.340Z,99358.66
2019-03-06T23:40:43.534Z,99359.36
2019-03-06T23:43:12.433Z,99356.03
2019-03-06T23:45:41.419Z,99356.38
2019-03-06T23:48:10.308Z,99355.95
2019-03-06T23:50:39.222Z,99355.56
2019-03-06T23:53:09.276Z,99351.88
2019-03-06T23:55:38.461Z,99342.64
2019-03-06T23:58:07.310Z,99342.97
